Time;durP1;ratioP1;P1;durP2;ratioP2;P2;SDS_P1;SDS_P2;PMS_P1;PMS_P2;Temp;Humidity;BMP_temperature;BMP_pressure;BME280_temperature;BME280_humidity;BME280_pressure;Samples;Min_cycle;Max_cycle;Signal;HPM_P1;HPM_P2
2022/08/28 00:02:24;;;;;;;12.13;4.45;;;;;;;;;;5047161;28;20445;-65
2022/08/28 00:04:50;;;;;;;12.93;4.40;;;;;;;;;;5052306;28;20070;-64
2022/08/28 00:07:16;;;;;;;11.07;4.43;;;;;;;;;;5045499;28;20474;-65
2022/08/28 00:09:42;;;;;;;10.75;4.10;;;;;;;;;;5047640;28;20041;-65
2022/08/28 00:12:08;;;;;;;9.05;4.15;;;;;;;;;;5045551;28;20033;-64
2022/08/28 00:14:35;;;;;;;9.27;4.07;;;;;;;;;;5045534;28;20040;-64
2022/08/28 00:17:01;;;;;;;9.98;4.55;;;;;;;;;;5048535;28;20509;-65
2022/08/28 00:19:27;;;;;;;9.10;3.63;;;;;;;;;;5037148;28;20116;-64
2022/08/28 00:21:53;;;;;;;10.98;4.45;;;;;;;;;;5046204;28;20078;-65
2022/08/28 00:24:19;;;;;;;10.25;4.40;;;;;;;;;;5048657;28;20052;-64
2022/08/28 00:29:31;;;;;;;11.00;4.20;;;;;;;;;;5038617;28;20041;-64
2022/08/28 00:31:57;;;;;;;7.75;4.07;;;;;;;;;;5037699;28;20124;-64
2022/08/28 00:34:23;;;;;;;11.98;4.07;;;;;;;;;;5048798;28;20040;-64
2022/08/28 00:36:49;;;;;;;11.18;4.95;;;;;;;;;;5041118;28;20056;-64
2022/08/28 00:39:15;;;;;;;8.60;4.65;;;;;;;;;;5039579;28;20483;-64
2022/08/28 00:41:41;;;;;;;9.52;4.05;;;;;;;;;;5043064;28;20044;-64
2022/08/28 00:44:11;;;;;;;9.23;4.18;;;;;;;;;;5048631;28;20133;-64
2022/08/28 00:46:37;;;;;;;12.40;4.28;;;;;;;;;;5045964;28;20052;-64
2022/08/28 00:49:05;;;;;;;7.47;3.60;;;;;;;;;;5033529;28;20391;-64
2022/08/28 00:54:17;;;;;;;8.65;3.97;;;;;;;;;;5050963;28;20040;-64
2022/08/28 00:56:46;;;;;;;8.93;4.25;;;;;;;;;;5046286;28;20044;-64
2022/08/28 00:59:14;;;;;;;9.13;3.65;;;;;;;;;;5046258;28;20041;-64
2022/08/28 01:01:40;;;;;;;7.70;4.00;;;;;;;;;;5050930;28;20498;-64
2022/08/28 01:04:07;;;;;;;11.43;4.03;;;;;;;;;;5053272;28;20072;-64
2022/08/28 01:06:33;;;;;;;7.57;3.92;;;;;;;;;;5047709;28;20506;-64
2022/08/28 01:09:00;;;;;;;9.30;4.20;;;;;;;;;;5044025;28;20083;-65
2022/08/28 01:11:26;;;;;;;8.00;3.65;;;;;;;;;;5034940;28;20041;-64
2022/08/28 01:13:55;;;;;;;9.05;3.65;;;;;;;;;;5044228;28;20079;-64
2022/08/28 01:16:22;;;;;;;9.23;4.07;;;;;;;;;;5038206;28;20039;-64
2022/08/28 01:18:49;;;;;;;9.82;4.00;;;;;;;;;;5045451;28;20107;-64
2022/08/28 01:21:18;;;;;;;10.25;3.53;;;;;;;;;;5054541;28;20418;-64
2022/08/28 01:23:47;;;;;;;8.27;3.40;;;;;;;;;;5052223;28;20037;-64
2022/08/28 01:26:13;;;;;;;8.82;3.58;;;;;;;;;;5052841;28;20047;-64
2022/08/28 01:28:40;;;;;;;12.98;3.58;;;;;;;;;;5044451;28;20167;-64
2022/08/28 01:31:09;;;;;;;9.32;3.40;;;;;;;;;;5052497;28;20107;-64
2022/08/28 01:33:35;;;;;;;9.23;3.63;;;;;;;;;;5042781;28;20034;-64
2022/08/28 01:36:01;;;;;;;11.27;3.78;;;;;;;;;;5045895;28;20037;-64
2022/08/28 01:38:27;;;;;;;8.00;3.70;;;;;;;;;;5037186;28;20560;-64
2022/08/28 01:40:56;;;;;;;8.55;3.50;;;;;;;;;;5051048;28;20078;-64
2022/08/28 01:43:24;;;;;;;7.40;3.65;;;;;;;;;;5054027;28;20055;-64
2022/08/28 01:45:51;;;;;;;8.20;3.83;;;;;;;;;;5047318;28;20469;-64
2022/08/28 01:48:19;;;;;;;7.50;3.20;;;;;;;;;;5042931;28;20530;-64
2022/08/28 01:50:45;;;;;;;9.80;3.58;;;;;;;;;;5047536;28;20041;-64
2022/08/28 01:53:13;;;;;;;9.73;3.60;;;;;;;;;;5052441;28;20051;-64
2022/08/28 01:55:39;;;;;;;10.00;3.50;;;;;;;;;;5052885;28;20029;-65
2022/08/28 01:58:06;;;;;;;6.85;3.30;;;;;;;;;;5047652;28;20049;-64
2022/08/28 02:00:33;;;;;;;10.23;3.75;;;;;;;;;;5040352;28;20048;-65
2022/08/28 02:02:59;;;;;;;9.77;4.15;;;;;;;;;;5051171;28;20052;-64
2022/08/28 02:05:27;;;;;;;6.10;3.20;;;;;;;;;;5043448;28;20044;-64
2022/08/28 02:07:53;;;;;;;8.10;3.63;;;;;;;;;;5045401;28;20564;-64
2022/08/28 02:10:24;;;;;;;8.95;4.00;;;;;;;;;;5049160;28;20045;-65
2022/08/28 02:12:57;;;;;;;6.95;3.75;;;;;;;;;;5046531;28;20052;-64
2022/08/28 02:15:24;;;;;;;7.50;3.45;;;;;;;;;;5044681;28;20048;-64
2022/08/28 02:17:50;;;;;;;7.55;3.75;;;;;;;;;;5047390;28;20049;-64
2022/08/28 02:20:16;;;;;;;9.15;3.50;;;;;;;;;;5051377;28;20041;-64
2022/08/28 02:22:43;;;;;;;7.22;3.67;;;;;;;;;;5051991;28;20038;-64
2022/08/28 02:25:10;;;;;;;6.45;3.85;;;;;;;;;;5050195;28;20040;-64
2022/08/28 02:27:37;;;;;;;6.43;4.35;;;;;;;;;;5040522;28;20113;-64
2022/08/28 02:30:04;;;;;;;8.38;3.70;;;;;;;;;;5045463;28;20479;-64
2022/08/28 02:32:30;;;;;;;8.25;4.00;;;;;;;;;;5061516;28;20068;-64
2022/08/28 02:34:56;;;;;;;7.20;3.63;;;;;;;;;;5052221;28;20044;-64
2022/08/28 02:37:23;;;;;;;8.70;3.67;;;;;;;;;;5040944;28;20415;-64
2022/08/28 02:39:49;;;;;;;11.90;3.95;;;;;;;;;;5037162;28;20568;-64
2022/08/28 02:42:15;;;;;;;8.48;3.55;;;;;;;;;;5050365;28;20033;-64
2022/08/28 02:44:41;;;;;;;9.30;3.90;;;;;;;;;;5042220;28;20029;-64
2022/08/28 02:47:07;;;;;;;6.35;3.90;;;;;;;;;;5050303;28;20099;-64
2022/08/28 02:49:33;;;;;;;10.55;3.78;;;;;;;;;;5044096;28;20060;-64
2022/08/28 02:51:59;;;;;;;6.38;3.83;;;;;;;;;;5053171;28;20091;-64
2022/08/28 02:54:26;;;;;;;8.10;3.65;;;;;;;;;;5043266;28;20041;-64
2022/08/28 02:56:53;;;;;;;9.10;3.90;;;;;;;;;;5044813;28;20048;-64
2022/08/28 02:59:19;;;;;;;7.20;3.95;;;;;;;;;;5045291;28;20045;-64
2022/08/28 03:01:45;;;;;;;7.55;4.15;;;;;;;;;;5067700;28;20526;-65
2022/08/28 03:04:12;;;;;;;8.15;3.72;;;;;;;;;;5042076;28;20050;-64
2022/08/28 03:06:38;;;;;;;9.52;4.75;;;;;;;;;;5042379;28;20037;-64
2022/08/28 03:09:04;;;;;;;12.95;4.00;;;;;;;;;;5059658;28;20040;-64
2022/08/28 03:11:31;;;;;;;9.13;4.53;;;;;;;;;;5050466;28;20049;-65
2022/08/28 03:13:57;;;;;;;11.57;4.00;;;;;;;;;;5047613;28;20086;-66
2022/08/28 03:16:24;;;;;;;10.23;3.90;;;;;;;;;;5046808;28;20045;-65
2022/08/28 03:18:50;;;;;;;8.02;3.55;;;;;;;;;;5040029;28;20685;-65
2022/08/28 03:21:16;;;;;;;9.10;3.90;;;;;;;;;;5067625;28;20041;-65
2022/08/28 03:23:42;;;;;;;6.97;3.63;;;;;;;;;;5047455;28;20056;-65
2022/08/28 03:26:12;;;;;;;6.78;3.30;;;;;;;;;;5039252;28;20049;-65
2022/08/28 03:28:40;;;;;;;8.27;4.00;;;;;;;;;;5041391;28;20040;-65
2022/08/28 03:31:07;;;;;;;6.25;4.00;;;;;;;;;;5065271;28;20123;-65
2022/08/28 03:33:34;;;;;;;8.43;3.90;;;;;;;;;;5060222;28;20033;-65
2022/08/28 03:36:00;;;;;;;8.40;3.90;;;;;;;;;;5049952;28;20461;-65
2022/08/28 03:38:26;;;;;;;7.90;3.60;;;;;;;;;;5052524;28;20044;-65
2022/08/28 03:40:53;;;;;;;9.20;3.72;;;;;;;;;;5056310;28;20033;-64
2022/08/28 03:43:20;;;;;;;9.50;4.30;;;;;;;;;;5051470;28;20433;-65
2022/08/28 03:45:52;;;;;;;8.50;4.05;;;;;;;;;;5037392;28;20128;-65
2022/08/28 03:48:19;;;;;;;8.77;4.00;;;;;;;;;;5047060;28;20406;-65
2022/08/28 03:50:45;;;;;;;11.80;3.88;;;;;;;;;;5041631;28;20040;-65
2022/08/28 03:53:11;;;;;;;8.93;4.03;;;;;;;;;;5058936;28;20055;-65
2022/08/28 03:55:39;;;;;;;10.98;4.15;;;;;;;;;;5046687;28;20033;-65
2022/08/28 03:58:06;;;;;;;10.63;3.80;;;;;;;;;;5039175;28;20124;-65
2022/08/28 04:00:32;;;;;;;9.20;4.03;;;;;;;;;;5035462;28;20056;-65
2022/08/28 04:02:58;;;;;;;9.30;4.45;;;;;;;;;;5045899;28;20058;-65
2022/08/28 04:05:24;;;;;;;7.50;4.15;;;;;;;;;;5054831;28;20460;-65
2022/08/28 04:07:51;;;;;;;9.40;3.83;;;;;;;;;;5041087;28;20049;-65
2022/08/28 04:10:18;;;;;;;14.98;4.70;;;;;;;;;;5054754;28;20052;-65
2022/08/28 04:12:44;;;;;;;9.45;3.90;;;;;;;;;;5048993;28;20529;-65
2022/08/28 04:15:11;;;;;;;7.78;4.00;;;;;;;;;;5038793;28;20394;-65
2022/08/28 04:17:38;;;;;;;9.13;4.18;;;;;;;;;;5046160;22;20072;-63
2022/08/28 04:20:06;;;;;;;10.55;4.35;;;;;;;;;;5045109;28;20072;-63
2022/08/28 04:22:32;;;;;;;9.43;4.20;;;;;;;;;;5037384;28;20556;-63
2022/08/28 04:24:58;;;;;;;10.27;4.72;;;;;;;;;;5034657;28;20029;-63
2022/08/28 04:27:24;;;;;;;12.90;4.88;;;;;;;;;;5030222;28;20084;-63
2022/08/28 04:29:50;;;;;;;7.40;3.83;;;;;;;;;;5030583;28;20037;-63
2022/08/28 04:32:16;;;;;;;10.13;4.07;;;;;;;;;;5028322;28;20044;-63
2022/08/28 04:34:42;;;;;;;9.70;3.90;;;;;;;;;;5016662;28;20030;-64
2022/08/28 04:37:08;;;;;;;9.52;4.55;;;;;;;;;;5023310;28;20037;-63
2022/08/28 04:39:34;;;;;;;8.88;4.05;;;;;;;;;;5029724;28;20399;-63
2022/08/28 04:42:00;;;;;;;11.95;4.13;;;;;;;;;;5032814;28;20114;-63
2022/08/28 04:44:26;;;;;;;11.88;4.03;;;;;;;;;;5046031;28;20505;-63
2022/08/28 04:46:52;;;;;;;10.27;4.38;;;;;;;;;;5026463;28;20042;-64
2022/08/28 04:49:18;;;;;;;8.35;3.97;;;;;;;;;;5049114;28;20124;-63
2022/08/28 04:51:44;;;;;;;10.35;4.20;;;;;;;;;;5038919;28;20037;-64
2022/08/28 04:54:10;;;;;;;10.13;4.25;;;;;;;;;;5030801;28;20033;-63
2022/08/28 04:56:37;;;;;;;9.60;4.10;;;;;;;;;;5019046;28;20050;-63
2022/08/28 04:59:03;;;;;;;10.07;4.40;;;;;;;;;;5017143;28;20179;-63
2022/08/28 05:01:29;;;;;;;7.10;4.00;;;;;;;;;;5021918;28;20087;-64
2022/08/28 05:03:57;;;;;;;7.97;4.10;;;;;;;;;;5017693;28;20072;-63
2022/08/28 05:06:25;;;;;;;11.20;3.75;;;;;;;;;;5026361;28;20048;-64
2022/08/28 05:08:52;;;;;;;13.48;4.10;;;;;;;;;;5018103;28;20053;-64
2022/08/28 05:11:20;;;;;;;10.70;4.00;;;;;;;;;;5029787;28;20377;-63
2022/08/28 05:13:46;;;;;;;11.75;4.07;;;;;;;;;;5028029;28;20034;-64
2022/08/28 05:16:12;;;;;;;8.85;4.68;;;;;;;;;;5039321;28;20029;-63
2022/08/28 05:18:38;;;;;;;9.35;4.68;;;;;;;;;;5028325;28;20033;-63
2022/08/28 05:21:10;;;;;;;11.82;4.25;;;;;;;;;;5037453;28;20545;-64
2022/08/28 05:23:36;;;;;;;12.60;4.30;;;;;;;;;;5034394;28;20077;-63
2022/08/28 05:26:02;;;;;;;7.88;3.97;;;;;;;;;;5020933;28;20090;-64
2022/08/28 05:28:28;;;;;;;8.70;4.10;;;;;;;;;;5032197;28;20405;-63
2022/08/28 05:30:54;;;;;;;12.35;4.30;;;;;;;;;;5029520;28;20087;-63
2022/08/28 05:33:20;;;;;;;11.30;4.18;;;;;;;;;;5037234;28;20033;-64
2022/08/28 05:35:46;;;;;;;10.20;3.63;;;;;;;;;;5016071;28;20040;-63
2022/08/28 05:38:13;;;;;;;9.82;3.97;;;;;;;;;;5040072;28;20092;-63
2022/08/28 05:40:41;;;;;;;10.55;3.83;;;;;;;;;;5036687;28;20116;-63
2022/08/28 05:43:07;;;;;;;7.18;3.85;;;;;;;;;;5043882;28;20404;-63
2022/08/28 05:45:33;;;;;;;11.57;3.88;;;;;;;;;;5029448;28;20044;-63
2022/08/28 05:47:59;;;;;;;10.15;4.30;;;;;;;;;;5035036;28;20048;-63
2022/08/28 05:50:25;;;;;;;9.88;3.30;;;;;;;;;;5034563;28;20554;-64
2022/08/28 05:52:51;;;;;;;11.05;3.60;;;;;;;;;;5019643;28;20045;-63
2022/08/28 05:55:17;;;;;;;9.75;3.65;;;;;;;;;;5023904;28;20083;-63
2022/08/28 05:57:43;;;;;;;8.38;3.45;;;;;;;;;;5025220;28;20037;-63
2022/08/28 06:00:11;;;;;;;10.23;3.50;;;;;;;;;;5036574;28;20050;-63
2022/08/28 06:02:38;;;;;;;8.43;3.53;;;;;;;;;;5039570;28;20045;-63
2022/08/28 06:05:04;;;;;;;8.07;3.42;;;;;;;;;;5031339;28;20541;-63
2022/08/28 06:07:31;;;;;;;10.82;3.42;;;;;;;;;;5036493;28;20068;-63
2022/08/28 06:09:57;;;;;;;11.82;3.20;;;;;;;;;;5044596;28;20048;-63
2022/08/28 06:12:23;;;;;;;10.13;3.63;;;;;;;;;;5036408;28;20034;-63
2022/08/28 06:14:49;;;;;;;6.68;3.22;;;;;;;;;;5026625;28;20049;-63
2022/08/28 06:17:15;;;;;;;10.32;3.30;;;;;;;;;;5033935;28;20038;-63
2022/08/28 06:19:41;;;;;;;7.10;3.40;;;;;;;;;;5045585;28;20037;-63
2022/08/28 06:22:09;;;;;;;7.80;3.08;;;;;;;;;;5030069;28;20041;-63
2022/08/28 06:24:35;;;;;;;8.07;3.28;;;;;;;;;;5026914;28;20171;-63
2022/08/28 06:27:02;;;;;;;9.30;2.83;;;;;;;;;;5027625;28;20037;-63
2022/08/28 06:29:28;;;;;;;6.30;3.00;;;;;;;;;;5040874;28;20052;-63
2022/08/28 06:31:55;;;;;;;9.55;3.25;;;;;;;;;;5022258;28;20038;-63
2022/08/28 06:34:22;;;;;;;12.10;3.17;;;;;;;;;;5027732;28;20037;-63
2022/08/28 06:36:48;;;;;;;13.30;3.20;;;;;;;;;;5024245;28;20034;-61
2022/08/28 06:39:14;;;;;;;7.25;2.80;;;;;;;;;;5024530;28;20041;-63
2022/08/28 06:41:42;;;;;;;10.45;2.90;;;;;;;;;;5033078;28;20037;-63
2022/08/28 06:44:13;;;;;;;12.88;3.30;;;;;;;;;;5020254;28;20483;-63
2022/08/28 06:46:39;;;;;;;9.18;2.95;;;;;;;;;;5018544;28;20075;-62
2022/08/28 06:49:06;;;;;;;9.52;2.70;;;;;;;;;;5025876;28;20137;-64
2022/08/28 06:51:33;;;;;;;9.75;3.55;;;;;;;;;;5022736;28;20037;-64
2022/08/28 06:53:59;;;;;;;7.22;2.90;;;;;;;;;;5021228;28;20551;-63
2022/08/28 06:56:25;;;;;;;9.73;3.08;;;;;;;;;;5040130;28;20403;-63
2022/08/28 06:58:51;;;;;;;9.05;2.75;;;;;;;;;;5019251;28;20069;-63
2022/08/28 07:01:21;;;;;;;8.10;2.72;;;;;;;;;;5032907;28;20083;-63
2022/08/28 07:03:48;;;;;;;5.72;2.25;;;;;;;;;;5024731;28;20037;-63
2022/08/28 07:06:15;;;;;;;9.30;2.47;;;;;;;;;;5020656;28;20034;-63
2022/08/28 07:08:41;;;;;;;8.90;2.38;;;;;;;;;;5036927;28;20040;-62
2022/08/28 07:11:12;;;;;;;9.70;3.00;;;;;;;;;;5034318;28;20057;-62
2022/08/28 07:13:38;;;;;;;5.07;2.10;;;;;;;;;;5033405;28;21873;-63
2022/08/28 07:16:04;;;;;;;9.70;2.38;;;;;;;;;;5026767;28;20029;-63
2022/08/28 07:18:30;;;;;;;7.05;2.45;;;;;;;;;;5026298;28;20044;-61
2022/08/28 07:20:59;;;;;;;6.78;2.47;;;;;;;;;;5027273;28;20439;-61
2022/08/28 07:23:25;;;;;;;6.68;1.80;;;;;;;;;;5024809;28;20053;-61
2022/08/28 07:25:51;;;;;;;13.27;2.58;;;;;;;;;;5020684;28;20045;-62
2022/08/28 07:28:17;;;;;;;8.48;2.28;;;;;;;;;;5026867;28;20052;-62
2022/08/28 07:30:43;;;;;;;9.98;2.33;;;;;;;;;;5034962;28;20482;-62
2022/08/28 07:33:09;;;;;;;7.85;2.08;;;;;;;;;;5022561;28;20117;-61
2022/08/28 07:35:35;;;;;;;5.90;1.83;;;;;;;;;;5020459;28;20064;-62
2022/08/28 07:38:01;;;;;;;8.32;2.15;;;;;;;;;;5020440;28;20036;-62
2022/08/28 07:40:28;;;;;;;9.73;2.13;;;;;;;;;;5025652;28;20127;-62
2022/08/28 07:45:38;;;;;;;8.27;2.13;;;;;;;;;;5020192;28;20049;-62
2022/08/28 07:48:07;;;;;;;6.03;1.80;;;;;;;;;;5019526;28;20038;-62
2022/08/28 07:50:33;;;;;;;6.15;1.65;;;;;;;;;;5022588;28;20041;-62
2022/08/28 07:52:59;;;;;;;6.70;1.83;;;;;;;;;;5020468;28;20044;-62
2022/08/28 07:55:28;;;;;;;5.60;1.70;;;;;;;;;;5017043;28;20407;-62
2022/08/28 07:57:54;;;;;;;7.50;2.40;;;;;;;;;;5017634;28;20041;-62
2022/08/28 08:00:20;;;;;;;5.32;1.85;;;;;;;;;;5023393;28;20045;-63
2022/08/28 08:02:46;;;;;;;5.38;1.88;;;;;;;;;;5019890;28;20566;-63
2022/08/28 08:05:13;;;;;;;5.10;1.67;;;;;;;;;;5026896;28;20088;-63
2022/08/28 08:07:39;;;;;;;7.15;1.67;;;;;;;;;;5027867;28;20052;-63
2022/08/28 08:10:06;;;;;;;7.97;1.80;;;;;;;;;;5020875;28;20037;-63
2022/08/28 08:12:33;;;;;;;5.40;1.63;;;;;;;;;;5018193;28;20064;-63
2022/08/28 08:14:59;;;;;;;7.85;1.60;;;;;;;;;;5037524;28;20044;-63
2022/08/28 08:17:26;;;;;;;9.52;2.13;;;;;;;;;;5034368;28;20041;-63
2022/08/28 08:19:53;;;;;;;8.60;1.52;;;;;;;;;;5024257;28;20511;-63
2022/08/28 08:22:19;;;;;;;4.47;1.55;;;;;;;;;;5043745;28;20124;-63
2022/08/28 08:24:45;;;;;;;8.30;1.80;;;;;;;;;;5021536;28;20083;-64
2022/08/28 08:27:11;;;;;;;7.45;1.90;;;;;;;;;;5023039;28;20403;-63
2022/08/28 08:29:38;;;;;;;5.30;1.45;;;;;;;;;;5042553;28;20041;-64
2022/08/28 08:32:06;;;;;;;6.05;1.70;;;;;;;;;;5030608;28;20042;-62
2022/08/28 08:34:39;;;;;;;4.10;1.58;;;;;;;;;;5024104;28;20037;-62
2022/08/28 08:37:05;;;;;;;5.88;1.75;;;;;;;;;;5019672;28;20088;-62
2022/08/28 08:39:32;;;;;;;6.30;1.70;;;;;;;;;;5043095;28;20064;-62
2022/08/28 08:41:59;;;;;;;7.13;1.52;;;;;;;;;;5022803;28;20041;-63
2022/08/28 08:44:25;;;;;;;2.70;1.50;;;;;;;;;;5021039;28;20491;-63
2022/08/28 08:46:51;;;;;;;7.07;1.60;;;;;;;;;;5016760;28;20069;-63
2022/08/28 08:49:20;;;;;;;5.97;1.60;;;;;;;;;;5028563;28;20064;-63
2022/08/28 08:52:05;;;;;;;6.55;1.60;;;;;;;;;;5036931;28;20073;-63
2022/08/28 08:54:31;;;;;;;4.47;1.55;;;;;;;;;;5028527;28;20033;-63
2022/08/28 08:56:59;;;;;;;2.70;1.20;;;;;;;;;;5030707;28;20047;-63
2022/08/28 08:59:28;;;;;;;4.57;1.13;;;;;;;;;;5017342;28;20091;-64
2022/08/28 09:02:04;;;;;;;6.32;1.45;;;;;;;;;;5035853;28;20465;-64
2022/08/28 09:04:38;;;;;;;6.57;1.58;;;;;;;;;;5032179;28;20040;-64
2022/08/28 09:07:10;;;;;;;5.82;1.30;;;;;;;;;;5027440;28;20112;-64
2022/08/28 09:09:39;;;;;;;4.22;1.35;;;;;;;;;;5020043;28;20053;-64
2022/08/28 09:12:07;;;;;;;5.13;1.70;;;;;;;;;;5030609;28;20056;-64
2022/08/28 09:14:41;;;;;;;3.67;1.70;;;;;;;;;;5027188;28;20039;-63
2022/08/28 09:17:08;;;;;;;6.95;1.83;;;;;;;;;;5030934;28;20045;-64
2022/08/28 09:19:34;;;;;;;4.75;1.40;;;;;;;;;;5040117;28;20037;-64
2022/08/28 09:22:00;;;;;;;8.45;1.60;;;;;;;;;;5048880;28;20038;-64
2022/08/28 09:24:28;;;;;;;6.65;1.70;;;;;;;;;;5033203;28;21491;-64
2022/08/28 09:26:59;;;;;;;6.05;1.33;;;;;;;;;;5034587;28;20048;-64
2022/08/28 09:29:36;;;;;;;6.47;1.52;;;;;;;;;;5044752;28;20422;-64
2022/08/28 09:32:17;;;;;;;4.15;1.50;;;;;;;;;;5048130;28;20124;-64
2022/08/28 09:34:58;;;;;;;6.15;1.90;;;;;;;;;;5027151;28;20037;-64
2022/08/28 09:37:25;;;;;;;6.57;1.60;;;;;;;;;;5042514;28;20045;-64
2022/08/28 09:40:11;;;;;;;4.55;1.55;;;;;;;;;;5034267;28;20053;-64
2022/08/28 09:45:24;;;;;;;6.05;1.48;;;;;;;;;;5036216;28;20073;-64
2022/08/28 09:47:51;;;;;;;5.05;1.40;;;;;;;;;;5039891;28;20376;-64
2022/08/28 09:50:20;;;;;;;4.35;1.40;;;;;;;;;;5034023;28;20490;-64
2022/08/28 09:52:46;;;;;;;3.67;1.20;;;;;;;;;;5037871;28;20028;-64
2022/08/28 09:55:17;;;;;;;3.72;1.10;;;;;;;;;;5035310;28;20383;-63
2022/08/28 09:57:43;;;;;;;;;;;;;;;;;;5041246;28;20113;-63
2022/08/28 10:00:09;;;;;;;6.07;1.92;;;;;;;;;;5033495;28;20012;-64
2022/08/28 10:02:58;;;;;;;3.72;1.50;;;;;;;;;;5034865;28;20038;-64
2022/08/28 10:05:34;;;;;;;4.43;1.27;;;;;;;;;;5016401;28;20030;-64
2022/08/28 10:08:05;;;;;;;5.05;1.40;;;;;;;;;;5033781;28;20499;-63
2022/08/28 10:10:50;;;;;;;9.70;1.63;;;;;;;;;;5053059;28;20048;-64
2022/08/28 10:13:28;;;;;;;7.10;2.10;;;;;;;;;;5046206;28;20044;-64
2022/08/28 10:15:54;;;;;;;3.10;1.30;;;;;;;;;;5034947;28;20029;-63
2022/08/28 10:18:38;;;;;;;7.70;1.70;;;;;;;;;;5045524;22;20123;-64
2022/08/28 10:21:05;;;;;;;5.60;1.52;;;;;;;;;;5024700;28;20055;-64
2022/08/28 10:23:50;;;;;;;7.88;1.67;;;;;;;;;;5014298;28;20068;-64
2022/08/28 10:26:25;;;;;;;4.45;1.58;;;;;;;;;;5032590;28;20403;-64
2022/08/28 10:29:06;;;;;;;5.03;1.63;;;;;;;;;;5047613;28;20036;-63
2022/08/28 10:31:53;;;;;;;6.72;1.60;;;;;;;;;;5053555;28;20041;-63
2022/08/28 10:34:37;;;;;;;5.68;1.70;;;;;;;;;;4990717;28;20046;-64
2022/08/28 10:37:09;;;;;;;4.82;1.55;;;;;;;;;;5037488;28;20041;-64
2022/08/28 10:39:38;;;;;;;4.38;1.40;;;;;;;;;;5037562;28;20037;-63
2022/08/28 10:42:05;;;;;;;3.58;1.30;;;;;;;;;;5048788;28;20129;-64
2022/08/28 10:44:40;;;;;;;5.35;1.50;;;;;;;;;;5039604;28;20041;-64
2022/08/28 10:47:06;;;;;;;3.92;1.50;;;;;;;;;;5033308;28;20041;-63
2022/08/28 10:49:44;;;;;;;3.15;1.40;;;;;;;;;;5032987;28;20049;-64
2022/08/28 10:52:22;;;;;;;4.80;1.50;;;;;;;;;;5016412;28;20084;-64
2022/08/28 10:54:48;;;;;;;5.93;1.58;;;;;;;;;;5018621;28;20037;-64
2022/08/28 10:57:34;;;;;;;5.32;1.60;;;;;;;;;;5041334;28;20453;-64
2022/08/28 11:00:02;;;;;;;7.32;1.80;;;;;;;;;;5032034;28;20045;-64
2022/08/28 11:02:29;;;;;;;5.88;1.67;;;;;;;;;;5017563;28;20102;-64
2022/08/28 11:04:56;;;;;;;3.08;1.40;;;;;;;;;;5036112;28;20037;-64
2022/08/28 11:07:28;;;;;;;7.35;1.60;;;;;;;;;;5040599;28;20049;-64
2022/08/28 11:09:54;;;;;;;11.75;2.15;;;;;;;;;;5032368;28;20506;-64
2022/08/28 11:12:21;;;;;;;4.93;1.50;;;;;;;;;;5016009;28;20088;-64
2022/08/28 11:14:49;;;;;;;2.92;1.55;;;;;;;;;;5037935;28;20127;-64
2022/08/28 11:17:21;;;;;;;4.18;1.50;;;;;;;;;;5041743;28;20494;-64
2022/08/28 11:20:03;;;;;;;3.40;1.40;;;;;;;;;;5046160;28;20045;-64
2022/08/28 11:22:35;;;;;;;4.90;1.80;;;;;;;;;;5047023;28;20044;-64
2022/08/28 11:25:16;;;;;;;5.78;1.88;;;;;;;;;;5032694;28;20041;-64
2022/08/28 11:28:02;;;;;;;4.10;1.67;;;;;;;;;;5032410;28;20033;-64
2022/08/28 11:30:31;;;;;;;5.38;1.73;;;;;;;;;;5032145;28;20041;-64
2022/08/28 11:32:59;;;;;;;4.07;1.60;;;;;;;;;;5021104;28;20124;-64
2022/08/28 11:35:40;;;;;;;4.70;1.60;;;;;;;;;;5034391;28;20034;-64
2022/08/28 11:38:06;;;;;;;3.60;1.60;;;;;;;;;;5018011;28;20069;-64
2022/08/28 11:40:32;;;;;;;3.78;1.45;;;;;;;;;;5031115;28;20437;-64
2022/08/28 11:43:13;;;;;;;4.72;1.60;;;;;;;;;;5020889;28;20051;-64
2022/08/28 11:45:44;;;;;;;5.53;1.73;;;;;;;;;;5033226;28;20116;-64
2022/08/28 11:48:22;;;;;;;5.22;2.22;;;;;;;;;;5035194;28;20045;-63
2022/08/28 11:50:56;;;;;;;4.25;1.48;;;;;;;;;;5031628;28;20048;-64
2022/08/28 11:53:36;;;;;;;5.93;1.55;;;;;;;;;;5032929;28;20164;-64
2022/08/28 11:56:08;;;;;;;4.53;1.73;;;;;;;;;;5011276;28;20069;-63
2022/08/28 11:59:09;;;;;;;5.28;1.85;;;;;;;;;;5011575;28;20104;-64
2022/08/28 12:01:36;;;;;;;4.25;1.48;;;;;;;;;;4931983;29;20051;-64
2022/08/28 12:04:07;;;;;;;3.53;1.73;;;;;;;;;;5014583;28;20503;-64
2022/08/28 12:06:47;;;;;;;3.92;1.52;;;;;;;;;;5039983;28;20076;-64
2022/08/28 12:09:25;;;;;;;4.70;1.70;;;;;;;;;;5048859;28;20056;-64
2022/08/28 12:12:12;;;;;;;2.75;1.42;;;;;;;;;;5051595;28;20045;-64
2022/08/28 12:14:38;;;;;;;4.18;1.70;;;;;;;;;;5009067;28;20550;-64
2022/08/28 12:17:22;;;;;;;3.97;1.92;;;;;;;;;;5028817;28;20128;-64
2022/08/28 12:20:15;;;;;;;3.88;1.42;;;;;;;;;;5037136;28;20060;-64
2022/08/28 12:22:51;;;;;;;4.30;1.30;;;;;;;;;;5042397;28;20079;-64
2022/08/28 12:25:32;;;;;;;4.15;1.67;;;;;;;;;;5041209;28;20132;-64
2022/08/28 12:28:03;;;;;;;3.83;1.63;;;;;;;;;;5039555;28;20048;-64
2022/08/28 12:30:31;;;;;;;3.08;1.50;;;;;;;;;;5032897;28;20053;-64
2022/08/28 12:33:23;;;;;;;4.68;1.42;;;;;;;;;;5026667;28;20175;-64
2022/08/28 12:35:50;;;;;;;3.15;1.30;;;;;;;;;;5006448;28;20106;-64
2022/08/28 12:38:21;;;;;;;3.03;1.55;;;;;;;;;;5021107;28;20519;-64
2022/08/28 12:40:49;;;;;;;3.90;1.60;;;;;;;;;;5051069;28;20040;-64
2022/08/28 12:43:21;;;;;;;5.85;1.60;;;;;;;;;;5043540;28;20510;-64
2022/08/28 12:46:09;;;;;;;3.78;1.58;;;;;;;;;;5045033;28;20037;-64
2022/08/28 12:48:52;;;;;;;3.45;1.50;;;;;;;;;;5034994;28;20044;-64
2022/08/28 12:51:20;;;;;;;3.85;1.20;;;;;;;;;;5035865;28;20406;-64
2022/08/28 12:53:48;;;;;;;4.75;1.50;;;;;;;;;;5043467;28;20543;-64
2022/08/28 12:56:16;;;;;;;4.57;1.65;;;;;;;;;;5047604;28;20068;-64
2022/08/28 12:58:43;;;;;;;5.15;1.63;;;;;;;;;;5046618;28;20036;-64
2022/08/28 13:01:21;;;;;;;4.45;1.55;;;;;;;;;;5053129;28;20048;-64
2022/08/28 13:03:49;;;;;;;6.20;1.98;;;;;;;;;;5046121;28;20065;-64
2022/08/28 13:06:22;;;;;;;6.50;2.20;;;;;;;;;;5033008;28;20183;-64
2022/08/28 13:08:48;;;;;;;3.20;1.50;;;;;;;;;;5046349;28;20043;-64
2022/08/28 13:11:18;;;;;;;3.63;1.75;;;;;;;;;;5051733;28;20564;-64
2022/08/28 13:13:46;;;;;;;4.57;1.73;;;;;;;;;;5043048;28;20033;-64
2022/08/28 13:16:13;;;;;;;3.85;1.58;;;;;;;;;;5029364;28;20521;-64
2022/08/28 13:18:39;;;;;;;6.10;1.70;;;;;;;;;;5046278;28;20040;-64
2022/08/28 13:21:14;;;;;;;3.25;1.80;;;;;;;;;;5035207;28;20240;-64
2022/08/28 13:23:41;;;;;;;4.80;1.92;;;;;;;;;;5036334;28;20037;-64
2022/08/28 13:26:07;;;;;;;3.42;1.80;;;;;;;;;;5035628;28;20045;-63
2022/08/28 13:28:37;;;;;;;6.35;1.77;;;;;;;;;;5028267;28;20045;-64
2022/08/28 13:31:03;;;;;;;5.17;1.90;;;;;;;;;;5053800;28;20080;-64
2022/08/28 13:33:30;;;;;;;4.18;1.85;;;;;;;;;;5042545;28;20112;-64
2022/08/28 13:35:56;;;;;;;3.88;1.35;;;;;;;;;;5048007;28;20146;-63
2022/08/28 13:38:23;;;;;;;5.40;1.75;;;;;;;;;;5043831;28;20069;-64
2022/08/28 13:40:49;;;;;;;5.95;1.42;;;;;;;;;;5054133;28;20048;-64
2022/08/28 13:43:16;;;;;;;6.28;1.80;;;;;;;;;;5043893;28;20044;-63
2022/08/28 13:45:43;;;;;;;4.15;1.45;;;;;;;;;;5047215;28;20099;-64
2022/08/28 13:48:10;;;;;;;3.13;1.92;;;;;;;;;;5042036;28;20395;-64
2022/08/28 13:50:37;;;;;;;4.25;1.60;;;;;;;;;;5054014;28;20098;-64
2022/08/28 13:53:03;;;;;;;6.13;1.50;;;;;;;;;;5026870;28;20052;-64
2022/08/28 13:55:29;;;;;;;6.25;1.73;;;;;;;;;;5027337;28;20044;-64
2022/08/28 13:57:55;;;;;;;3.55;1.92;;;;;;;;;;5023192;28;20046;-64
2022/08/28 14:00:21;;;;;;;3.67;1.40;;;;;;;;;;5051842;28;20049;-64
2022/08/28 14:05:32;;;;;;;2.85;1.25;;;;;;;;;;5037661;28;20041;-63
2022/08/28 14:07:58;;;;;;;2.40;1.45;;;;;;;;;;5043788;28;20117;-64
2022/08/28 14:10:24;;;;;;;2.90;1.40;;;;;;;;;;5052380;28;20056;-63
2022/08/28 14:12:50;;;;;;;4.18;1.30;;;;;;;;;;5045562;28;20399;-64
2022/08/28 14:15:16;;;;;;;5.07;1.40;;;;;;;;;;5045685;28;20041;-64
2022/08/28 14:17:43;;;;;;;5.05;1.15;;;;;;;;;;5042552;28;20040;-63
2022/08/28 14:20:10;;;;;;;2.65;0.90;;;;;;;;;;5041669;28;20072;-63
2022/08/28 14:22:37;;;;;;;4.07;1.08;;;;;;;;;;5045114;28;20048;-63
2022/08/28 14:25:04;;;;;;;2.72;1.10;;;;;;;;;;5044576;28;20049;-64
2022/08/28 14:27:30;;;;;;;1.80;0.90;;;;;;;;;;5047057;28;20026;-64
2022/08/28 14:29:56;;;;;;;3.17;1.38;;;;;;;;;;5048719;28;20044;-64
2022/08/28 14:32:22;;;;;;;4.47;1.05;;;;;;;;;;5042199;28;20033;-63
2022/08/28 14:34:49;;;;;;;2.67;1.02;;;;;;;;;;5045359;28;20037;-63
2022/08/28 14:37:15;;;;;;;3.65;1.10;;;;;;;;;;5022204;28;20111;-63
2022/08/28 14:39:41;;;;;;;3.95;1.23;;;;;;;;;;5038977;28;20029;-63
2022/08/28 14:42:07;;;;;;;4.82;1.00;;;;;;;;;;5041594;28;20056;-63
2022/08/28 14:44:33;;;;;;;5.07;1.20;;;;;;;;;;5053079;28;20470;-63
2022/08/28 14:46:59;;;;;;;3.50;1.25;;;;;;;;;;5043827;28;20084;-63
2022/08/28 14:49:27;;;;;;;2.92;1.20;;;;;;;;;;5039520;28;20077;-63
2022/08/28 14:51:53;;;;;;;3.88;1.25;;;;;;;;;;5041443;28;20099;-64
2022/08/28 14:54:20;;;;;;;3.55;1.13;;;;;;;;;;5051726;28;20049;-63
2022/08/28 14:56:47;;;;;;;2.90;1.23;;;;;;;;;;5042750;28;20029;-63
2022/08/28 14:59:14;;;;;;;2.33;0.90;;;;;;;;;;5041117;28;20410;-63
2022/08/28 15:01:41;;;;;;;3.45;1.30;;;;;;;;;;5030800;28;20099;-63
2022/08/28 15:04:09;;;;;;;2.20;0.80;;;;;;;;;;5041329;28;20052;-64